Valle Di Nervion — IBPC — position and weather

sailwx.info

Track history (hours):
 
Tides and Currents Weather Stations Pressure Air Temp Water Temp Dewpoint Dewpoint Depression Visibility Wind Speed Wind Dir Waves Ship Positions

Valle Di Nervion

Last reported at 2014-Nov-18 19:12 UTC. Time now 2014-Nov-27 02:54 UTC.
Position N 35°50' E 023°40'.
Warning: this ship's position is 8 days out of date.

Length 176 m; draft 9.4 m.

Type: Ship (hazmat cat D). MMSI: 247109500.

Date/timePositionNaut miles runAvg speedWind from/ knotsBaromVisibWave heightAir tempDewpointWater temp
2014-Nov-18 19:12N 35°50' E 023°40'1011.9
2014-Nov-18 18:24N 35°59' E 023°43'1012.0
2014-Nov-18 17:33N 36°09' E 023°46'1312.1
2014-Nov-18 16:29N 36°21' E 023°50'1212.7
2014-Nov-18 15:33N 36°33' E 023°53'1313.1
2014-Nov-18 14:33N 36°46' E 023°56'1312.7
2014-Nov-18 13:33N 36°58' E 023°60'1412.6
2014-Nov-18 12:29N 37°11' E 024°03'1212.4
2014-Nov-18 11:33N 37°23' E 024°06'1212.3
2014-Nov-18 10:32N 37°35' E 024°08'1312.2
2014-Nov-18 09:30N 37°45' E 024°18'1312.6
2014-Nov-18 08:30N 37°53' E 024°31'1812.5
2014-Nov-18 07:03N 38°08' E 024°43'712.4
2014-Nov-18 06:28N 38°15' E 024°47'287 5.7
2014-Nov-16 04:15N 41°32' E 029°19'23112.2
2014-Nov-15 09:22N 42°47' E 034°13'1012.4
2014-Nov-15 08:33N 42°51' E 034°26'4112.2
2014-Nov-15 05:11N 43°04' E 035°19'2612.4
2014-Nov-15 03:06N 43°12' E 035°53'712.5
2014-Nov-15 02:32N 43°15' E 036°02'1212.6
2014-Nov-15 01:34N 43°19' E 036°18'1312.5
2014-Nov-15 00:32N 43°23' E 036°34'64 1.5
2014-Nov-13 04:32N 43°47' E 037°56'40612.6
2014-Nov-11 20:13N 41°28' E 029°17'913.3
2014-Nov-11 19:33N 41°20' E 029°13'2211.2
2014-Nov-11 17:33N 40°59' E 028°60'7 7.4
2014-Nov-11 16:33N 40°53' E 028°55'2 2.1
2014-Nov-11 15:30N 40°51' E 028°55'0 0.4
2014-Nov-11 14:33N 40°51' E 028°54'0 0.4
2014-Nov-11 13:33N 40°50' E 028°54'1 0.6
2014-Nov-11 12:25N 40°50' E 028°54'1 0.6
2014-Nov-11 11:31N 40°49' E 028°54'1 0.7
2014-Nov-11 10:33N 40°48' E 028°54'0 0.4
2014-Nov-11 09:33N 40°48' E 028°54'3 2.9
2014-Nov-11 08:31N 40°51' E 028°54'1 0.8
2014-Nov-11 07:32N 40°50' E 028°54'1 1.0
2014-Nov-11 06:32N 40°49' E 028°54'1 1.1
2014-Nov-11 05:31N 40°48' E 028°54'1 1.0
2014-Nov-11 04:33N 40°47' E 028°54'1 0.8
2014-Nov-11 03:33N 40°46' E 028°54'1 0.6
2014-Nov-11 02:30N 40°46' E 028°55'7 6.9
2014-Nov-11 01:28N 40°49' E 028°46'215 6.1
2014-Nov-09 14:03N 39°50' E 024°14'  
Track history (hours):
 
Tides and Currents Weather Stations Pressure Air Temp Water Temp Dewpoint Dewpoint Depression Visibility Wind Speed Wind Dir Waves Ship Positions

Valle Di Nervion

Last reported at 2014-Nov-18 19:12 UTC. Time now 2014-Nov-27 02:54 UTC.
Position N 35°50' E 023°40'.
Warning: this ship's position is 8 days out of date.

Length 176 m; draft 9.4 m.

Type: Ship (hazmat cat D). MMSI: 247109500.

Date/timePositionNaut miles runAvg speedWind from/ knotsBaromVisibWave heightAir tempDewpointWater temp
2014-Nov-18 19:12N 35°50' E 023°40'1011.9
2014-Nov-18 18:24N 35°59' E 023°43'1012.0
2014-Nov-18 17:33N 36°09' E 023°46'1312.1
2014-Nov-18 16:29N 36°21' E 023°50'1212.7
2014-Nov-18 15:33N 36°33' E 023°53'1313.1
2014-Nov-18 14:33N 36°46' E 023°56'1312.7
2014-Nov-18 13:33N 36°58' E 023°60'1412.6
2014-Nov-18 12:29N 37°11' E 024°03'1212.4
2014-Nov-18 11:33N 37°23' E 024°06'1212.3
2014-Nov-18 10:32N 37°35' E 024°08'1312.2
2014-Nov-18 09:30N 37°45' E 024°18'1312.6
2014-Nov-18 08:30N 37°53' E 024°31'1812.5
2014-Nov-18 07:03N 38°08' E 024°43'712.4
2014-Nov-18 06:28N 38°15' E 024°47'287 5.7
2014-Nov-16 04:15N 41°32' E 029°19'23112.2
2014-Nov-15 09:22N 42°47' E 034°13'1012.4
2014-Nov-15 08:33N 42°51' E 034°26'4112.2
2014-Nov-15 05:11N 43°04' E 035°19'2612.4
2014-Nov-15 03:06N 43°12' E 035°53'712.5
2014-Nov-15 02:32N 43°15' E 036°02'1212.6
2014-Nov-15 01:34N 43°19' E 036°18'1312.5
2014-Nov-15 00:32N 43°23' E 036°34'64 1.5
2014-Nov-13 04:32N 43°47' E 037°56'40612.6
2014-Nov-11 20:13N 41°28' E 029°17'913.3
2014-Nov-11 19:33N 41°20' E 029°13'2211.2
2014-Nov-11 17:33N 40°59' E 028°60'7 7.4
2014-Nov-11 16:33N 40°53' E 028°55'2 2.1
2014-Nov-11 15:30N 40°51' E 028°55'0 0.4
2014-Nov-11 14:33N 40°51' E 028°54'0 0.4
2014-Nov-11 13:33N 40°50' E 028°54'1 0.6
2014-Nov-11 12:25N 40°50' E 028°54'1 0.6
2014-Nov-11 11:31N 40°49' E 028°54'1 0.7
2014-Nov-11 10:33N 40°48' E 028°54'0 0.4
2014-Nov-11 09:33N 40°48' E 028°54'3 2.9
2014-Nov-11 08:31N 40°51' E 028°54'1 0.8
2014-Nov-11 07:32N 40°50' E 028°54'1 1.0
2014-Nov-11 06:32N 40°49' E 028°54'1 1.1
2014-Nov-11 05:31N 40°48' E 028°54'1 1.0
2014-Nov-11 04:33N 40°47' E 028°54'1 0.8
2014-Nov-11 03:33N 40°46' E 028°54'1 0.6
2014-Nov-11 02:30N 40°46' E 028°55'7 6.9
2014-Nov-11 01:28N 40°49' E 028°46'215 6.1
2014-Nov-09 14:03N 39°50' E 024°14'  

Dump ship's entire track history